Time;durP1;ratioP1;P1;durP2;ratioP2;P2;SDS_P1;SDS_P2;PMS_P1;PMS_P2;Temp;Humidity;BMP_temperature;BMP_pressure;BME280_temperature;BME280_humidity;BME280_pressure;Samples;Min_cycle;Max_cycle;Signal;HPM_P1;HPM_P2
2020/12/12 00:02:07;;;;;;;19.17;14.73;;;;;;;-0.09;100.00;96134.53;5035392;28;20650;-69
2020/12/12 00:04:34;;;;;;;18.83;15.07;;;;;;;-0.28;100.00;96136.25;5041919;28;20460;-70
2020/12/12 00:07:01;;;;;;;17.97;14.17;;;;;;;-0.23;100.00;96136.63;5006185;28;20222;-69
2020/12/12 00:09:28;;;;;;;18.47;15.20;;;;;;;-0.30;100.00;96133.78;5039709;28;20452;-69
2020/12/12 00:11:55;;;;;;;16.93;15.07;;;;;;;-0.34;100.00;96135.03;5014805;28;20449;-67
2020/12/12 00:14:22;;;;;;;19.17;15.80;;;;;;;-0.35;100.00;96135.19;5033095;28;20457;-70
2020/12/12 00:16:52;;;;;;;17.00;13.97;;;;;;;-0.20;100.00;96131.16;5028222;28;20650;-67
2020/12/12 00:19:19;;;;;;;20.20;15.67;;;;;;;-0.41;100.00;96118.34;5037249;28;21172;-70
2020/12/12 00:21:50;;;;;;;16.80;14.43;;;;;;;-0.19;100.00;96124.13;5016016;28;20456;-69
2020/12/12 00:24:17;;;;;;;20.80;14.30;;;;;;;-0.25;100.00;96130.75;5036382;28;20686;-69
2020/12/12 00:26:43;;;;;;;19.03;15.17;;;;;;;-0.39;100.00;96126.81;5033537;28;21033;-67
2020/12/12 00:29:11;;;;;;;19.93;15.03;;;;;;;-0.18;100.00;96118.00;5021109;28;20845;-69
2020/12/12 00:31:39;;;;;;;15.40;13.50;;;;;;;-0.17;100.00;96127.44;5033508;28;20804;-67
2020/12/12 00:34:07;;;;;;;19.07;14.73;;;;;;;-0.13;100.00;96127.97;5032319;28;20235;-69
2020/12/12 00:36:38;;;;;;;19.33;15.40;;;;;;;-0.20;100.00;96125.09;5037523;28;20465;-70
2020/12/12 00:39:06;;;;;;;16.97;13.63;;;;;;;-0.19;100.00;96127.56;5011028;28;20208;-70
2020/12/12 00:41:36;;;;;;;16.47;13.43;;;;;;;-0.18;100.00;96118.81;5039189;28;20211;-69
2020/12/12 00:44:04;;;;;;;17.50;14.77;;;;;;;-0.18;100.00;96118.00;5008108;28;20956;-70
2020/12/12 00:46:31;;;;;;;18.40;14.50;;;;;;;-0.12;100.00;96120.03;5031576;28;20278;-68
2020/12/12 00:48:58;;;;;;;16.53;14.10;;;;;;;-0.06;100.00;96122.06;5032084;28;20211;-70
2020/12/12 00:51:26;;;;;;;17.93;14.57;;;;;;;-0.10;100.00;96131.13;5037503;28;20438;-70
2020/12/12 00:53:53;;;;;;;16.80;14.93;;;;;;;-0.08;100.00;96131.78;5003238;28;21535;-67
2020/12/12 00:56:20;;;;;;;18.00;14.50;;;;;;;-0.10;100.00;96123.31;5034119;28;20476;-68
2020/12/12 00:58:47;;;;;;;18.33;14.90;;;;;;;-0.11;100.00;96128.63;5009502;28;20464;-67
2020/12/12 01:01:15;;;;;;;20.57;16.33;;;;;;;-0.18;100.00;96118.00;5038958;28;20441;-69
2020/12/12 01:03:43;;;;;;;21.60;16.27;;;;;;;-0.17;100.00;96123.03;5038195;28;20442;-67
2020/12/12 01:06:10;;;;;;;18.67;16.63;;;;;;;-0.23;100.00;96125.38;5036599;28;20262;-69
2020/12/12 01:08:39;;;;;;;20.57;17.03;;;;;;;-0.15;100.00;96113.31;5032555;28;20261;-67
2020/12/12 01:11:06;;;;;;;22.67;17.27;;;;;;;-0.21;100.00;96118.25;5016250;28;20525;-70
2020/12/12 01:13:33;;;;;;;19.90;16.07;;;;;;;-0.26;100.00;96121.31;5016986;28;20211;-69
2020/12/12 01:16:05;;;;;;;20.80;15.53;;;;;;;-0.22;100.00;96129.63;5030599;28;21239;-69
2020/12/12 01:18:32;;;;;;;20.90;17.30;;;;;;;-0.32;100.00;96129.69;5032587;28;20473;-69
2020/12/12 01:20:59;;;;;;;23.20;18.57;;;;;;;-0.29;100.00;96132.00;5030380;28;21131;-69
2020/12/12 01:23:26;;;;;;;20.50;16.17;;;;;;;-0.31;100.00;96131.31;5036535;28;20997;-70
2020/12/12 01:25:54;;;;;;;19.53;15.87;;;;;;;-0.17;100.00;96124.84;4998958;28;20469;-67
2020/12/12 01:28:22;;;;;;;23.60;17.07;;;;;;;-0.20;100.00;96130.31;5037958;28;20454;-69
2020/12/12 01:30:52;;;;;;;18.73;15.37;;;;;;;-0.15;100.00;96130.72;5012642;28;20207;-67
2020/12/12 01:33:19;;;;;;;21.43;16.83;;;;;;;-0.23;100.00;96126.22;5035886;28;20980;-69
2020/12/12 01:35:46;;;;;;;22.47;16.60;;;;;;;-0.17;100.00;96130.06;5035281;28;20476;-67
2020/12/12 01:38:14;;;;;;;18.67;15.70;;;;;;;-0.20;100.00;96130.31;5036742;28;20306;-68
2020/12/12 01:40:41;;;;;;;21.23;17.17;;;;;;;-0.23;100.00;96131.44;5011689;28;20957;-68
2020/12/12 01:43:09;;;;;;;20.63;16.10;;;;;;;-0.15;100.00;96128.13;5038206;28;21003;-70
2020/12/12 01:45:36;;;;;;;22.30;16.20;;;;;;;-0.17;100.00;96130.06;5004829;28;20697;-67
2020/12/12 01:48:04;;;;;;;20.30;16.77;;;;;;;-0.09;100.00;96122.34;5027001;28;20752;-68
2020/12/12 01:50:31;;;;;;;21.23;16.63;;;;;;;-0.09;100.00;96119.75;5036425;28;20322;-69
2020/12/12 01:52:58;;;;;;;20.40;16.67;;;;;;;-0.19;100.00;96124.97;5028639;28;20564;-69
2020/12/12 01:55:25;;;;;;;20.47;16.13;;;;;;;-0.23;100.00;96121.00;5007854;28;20227;-69
2020/12/12 01:57:52;;;;;;;21.30;17.13;;;;;;;-0.32;100.00;96112.28;5032217;28;20454;-67
2020/12/12 02:00:22;;;;;;;21.80;17.00;;;;;;;-0.35;100.00;96116.97;5016074;28;20450;-69
2020/12/12 02:02:49;;;;;;;21.87;16.17;;;;;;;-0.26;100.00;96121.31;5033187;28;20449;-67
2020/12/12 02:05:41;;;;;;;20.67;16.80;;;;;;;-0.32;100.00;96112.28;5046020;28;21074;-69
2020/12/12 02:08:13;;;;;;;23.50;17.10;;;;;;;-0.33;100.00;96110.63;5033600;28;20578;-69
2020/12/12 02:10:41;;;;;;;21.43;16.97;;;;;;;-0.24;100.00;96108.97;5009458;28;20302;-68
2020/12/12 02:13:10;;;;;;;25.47;17.93;;;;;;;-0.35;100.00;96122.97;5034951;28;20449;-69
2020/12/12 02:15:38;;;;;;;23.30;16.80;;;;;;;-0.23;100.00;96113.22;5017236;28;20472;-69
2020/12/12 02:18:06;;;;;;;19.07;16.30;;;;;;;-0.27;100.00;96118.84;5033631;28;20823;-69
2020/12/12 02:20:33;;;;;;;21.27;16.93;;;;;;;-0.23;100.00;96121.00;5034283;28;20211;-70
2020/12/12 02:23:01;;;;;;;23.27;17.10;;;;;;;-0.35;100.00;96116.97;5032288;28;20458;-69
2020/12/12 02:25:28;;;;;;;21.97;17.47;;;;;;;-0.27;100.00;96108.41;5007298;28;20473;-66
2020/12/12 02:27:57;;;;;;;21.77;18.13;;;;;;;-0.28;100.00;96107.63;5022462;28;20552;-69
2020/12/12 02:30:24;;;;;;;23.63;18.07;;;;;;;-0.35;100.00;96109.16;5039858;28;20540;-66
2020/12/12 02:32:51;;;;;;;23.30;18.03;;;;;;;-0.30;100.00;96114.75;5019958;28;20458;-69
2020/12/12 02:35:19;;;;;;;23.07;16.57;;;;;;;-0.28;100.00;96115.41;5043307;28;20253;-69
2020/12/12 02:37:46;;;;;;;23.63;18.40;;;;;;;-0.34;100.00;96113.41;5030615;28;21169;-67
2020/12/12 02:40:13;;;;;;;22.43;18.07;;;;;;;-0.26;100.00;96107.44;5042087;28;20435;-69
2020/12/12 02:42:40;;;;;;;24.17;18.20;;;;;;;-0.26;100.00;96108.28;5010991;28;20211;-69
2020/12/12 02:45:07;;;;;;;22.97;18.43;;;;;;;-0.21;100.00;96102.63;5035596;28;20515;-69
2020/12/12 02:47:35;;;;;;;24.30;17.73;;;;;;;-0.11;100.00;96107.81;5015410;28;20486;-68
2020/12/12 02:50:08;;;;;;;23.40;17.40;;;;;;;-0.06;100.00;96106.44;5034461;28;20208;-67
2020/12/12 02:52:35;;;;;;;21.20;17.07;;;;;;;-0.14;100.00;96095.91;5042327;28;20445;-67
2020/12/12 02:55:03;;;;;;;20.10;16.30;;;;;;;-0.13;100.00;96099.31;5038079;28;20461;-69
2020/12/12 02:57:31;;;;;;;24.93;18.57;;;;;;;-0.33;100.00;96102.03;5011073;28;20207;-67
2020/12/12 02:59:58;;;;;;;26.10;18.43;;;;;;;-0.51;100.00;96097.53;5041786;28;20902;-69
2020/12/12 03:02:25;;;;;;;22.87;19.10;;;;;;;-0.41;100.00;96100.13;5024022;28;20450;-68
2020/12/12 03:04:52;;;;;;;28.17;19.97;;;;;;;-0.44;100.00;96096.00;5034464;28;20453;-70
2020/12/12 03:07:19;;;;;;;25.63;18.97;;;;;;;-0.41;100.00;96107.09;5043195;28;20481;-70
2020/12/12 03:09:46;;;;;;;24.53;19.93;;;;;;;-0.35;100.00;96101.34;5042108;28;20694;-70
2020/12/12 03:12:13;;;;;;;22.43;18.40;;;;;;;-0.41;100.00;96102.72;5041173;28;20214;-70
2020/12/12 03:14:41;;;;;;;22.90;18.53;;;;;;;-0.39;100.00;96105.16;5003585;28;20220;-67
2020/12/12 03:17:09;;;;;;;24.10;18.00;;;;;;;-0.41;100.00;96099.28;5037165;28;21033;-70
2020/12/12 03:19:37;;;;;;;22.90;19.73;;;;;;;-0.54;100.00;96097.81;5016494;28;20541;-67
2020/12/12 03:22:05;;;;;;;23.50;19.03;;;;;;;-0.39;100.00;96089.53;5043264;28;20322;-70
2020/12/12 03:24:32;;;;;;;26.47;19.77;;;;;;;-0.52;100.00;96100.28;5034617;28;20208;-67
2020/12/12 03:26:58;;;;;;;24.87;18.80;;;;;;;-0.45;100.00;96103.97;5038238;28;20603;-69
2020/12/12 03:29:25;;;;;;;24.33;19.27;;;;;;;-0.49;100.00;96105.22;5009530;28;20454;-68
2020/12/12 03:31:53;;;;;;;26.17;19.33;;;;;;;-0.61;100.00;96107.16;5041754;28;20208;-70
2020/12/12 03:34:20;;;;;;;25.17;20.27;;;;;;;-0.52;100.00;96092.50;5016175;28;20572;-69
2020/12/12 03:36:47;;;;;;;24.83;19.80;;;;;;;-0.51;100.00;96097.53;5036271;28;20740;-70
2020/12/12 03:39:14;;;;;;;27.03;19.20;;;;;;;-0.53;100.00;96099.47;5037572;28;20438;-69
2020/12/12 03:41:41;;;;;;;25.77;20.37;;;;;;;-0.54;100.00;96102.22;5040926;28;20450;-67
2020/12/12 03:44:08;;;;;;;23.40;19.23;;;;;;;-0.51;100.00;96107.94;5010383;28;20611;-70
2020/12/12 03:46:35;;;;;;;28.13;20.33;;;;;;;-0.46;100.00;96104.94;5036946;28;20461;-67
2020/12/12 03:49:03;;;;;;;23.80;19.70;;;;;;;-0.48;100.00;96104.25;5012451;28;20461;-69
2020/12/12 03:51:30;;;;;;;26.80;19.73;;;;;;;-0.57;100.00;96105.06;5044988;28;20941;-67
2020/12/12 03:53:57;;;;;;;32.07;21.93;;;;;;;-0.60;100.00;96103.59;5038080;28;20453;-70
2020/12/12 03:56:25;;;;;;;28.23;20.80;;;;;;;-0.57;100.00;96095.50;5039373;28;20458;-68
2020/12/12 03:58:52;;;;;;;26.80;20.73;;;;;;;-0.62;100.00;96098.50;5013359;28;22790;-69
2020/12/12 04:01:19;;;;;;;23.67;19.90;;;;;;;-0.46;100.00;96102.31;5036280;28;20653;-70
2020/12/12 04:03:46;;;;;;;28.43;21.43;;;;;;;-0.40;100.00;96106.13;5030147;28;20952;-69
2020/12/12 04:06:14;;;;;;;28.27;20.67;;;;;;;-0.50;100.00;96098.38;5011059;28;20474;-67
2020/12/12 04:08:41;;;;;;;29.63;21.47;;;;;;;-0.38;100.00;96102.44;5036754;28;20223;-67
2020/12/12 04:11:08;;;;;;;27.00;20.07;;;;;;;-0.42;100.00;96111.50;5041449;28;20813;-68
2020/12/12 04:13:35;;;;;;;27.23;20.77;;;;;;;-0.40;100.00;96096.56;5038315;28;20469;-67
2020/12/12 04:16:03;;;;;;;28.37;20.20;;;;;;;-0.37;100.00;96106.69;5008195;28;20239;-69
2020/12/12 04:18:30;;;;;;;29.47;20.37;;;;;;;-0.37;100.00;96106.69;5036559;28;20539;-67
2020/12/12 04:20:57;;;;;;;27.37;19.80;;;;;;;-0.40;100.00;96104.34;5018110;28;20443;-70
2020/12/12 04:23:25;;;;;;;23.97;19.27;;;;;;;-0.45;100.00;96114.38;5038931;28;20446;-67
2020/12/12 04:25:52;;;;;;;27.47;20.30;;;;;;;-0.42;100.00;96121.06;5039324;28;20642;-69
2020/12/12 04:28:19;;;;;;;23.47;18.73;;;;;;;-0.44;100.00;96118.63;5044033;28;20485;-69
2020/12/12 04:30:46;;;;;;;24.80;20.23;;;;;;;-0.37;100.00;96111.88;5007801;28;20473;-70
2020/12/12 04:33:13;;;;;;;24.90;19.67;;;;;;;-0.40;100.00;96112.16;5036883;28;20464;-69
2020/12/12 04:35:40;;;;;;;26.03;19.57;;;;;;;-0.37;100.00;96114.47;5029319;28;20592;-67
2020/12/12 04:38:07;;;;;;;28.17;21.40;;;;;;;-0.32;100.00;96112.28;5018463;28;20454;-70
2020/12/12 04:40:34;;;;;;;27.47;20.30;;;;;;;-0.42;100.00;96108.88;5037130;28;20446;-67
2020/12/12 04:43:04;;;;;;;23.47;18.97;;;;;;;-0.30;100.00;96109.53;5041838;28;20500;-69
2020/12/12 04:45:31;;;;;;;24.93;18.73;;;;;;;-0.28;100.00;96106.78;5022411;28;20900;-66
2020/12/12 04:47:58;;;;;;;26.07;20.57;;;;;;;-0.33;100.00;96113.22;5022697;28;20492;-70
2020/12/12 04:50:29;;;;;;;24.60;18.47;;;;;;;-0.18;100.00;96107.59;5046410;28;20473;-68
2020/12/12 04:52:57;;;;;;;26.20;19.30;;;;;;;-0.24;100.00;96113.34;5018998;28;20450;-67
2020/12/12 04:55:26;;;;;;;23.73;20.30;;;;;;;-0.19;100.00;96113.72;5043776;28;20468;-67
2020/12/12 04:57:54;;;;;;;23.77;18.27;;;;;;;-0.19;100.00;96109.34;5033113;28;20725;-69
2020/12/12 05:00:21;;;;;;;30.43;19.63;;;;;;;-0.22;100.00;96109.63;5034253;28;20446;-68
2020/12/12 05:02:48;;;;;;;22.67;19.50;;;;;;;-0.35;100.00;96111.75;5011063;28;20806;-69
2020/12/12 05:05:15;;;;;;;24.60;18.70;;;;;;;-0.29;100.00;96119.00;5031579;28;20231;-68
2020/12/12 05:07:42;;;;;;;25.70;19.90;;;;;;;-0.34;100.00;96111.59;5036800;28;20752;-69
2020/12/12 05:10:10;;;;;;;26.20;19.90;;;;;;;-0.31;100.00;96115.72;5016013;28;20485;-68
2020/12/12 05:12:37;;;;;;;26.03;20.37;;;;;;;-0.34;100.00;96119.41;5035424;28;20449;-68
2020/12/12 05:15:05;;;;;;;25.70;18.80;;;;;;;-0.37;100.00;96118.88;5017267;28;20480;-69
2020/12/12 05:17:31;;;;;;;27.17;20.13;;;;;;;-0.37;100.00;96114.47;5006344;28;20531;-66
2020/12/12 05:19:59;;;;;;;24.60;19.50;;;;;;;-0.22;100.00;96120.06;5016175;28;20679;-68
2020/12/12 05:22:26;;;;;;;30.57;19.97;;;;;;;-0.26;100.00;96121.31;5031762;28;20199;-68
2020/12/12 05:24:54;;;;;;;25.70;19.33;;;;;;;-0.15;100.00;96117.72;5007306;28;20526;-70
2020/12/12 05:27:21;;;;;;;27.13;20.10;;;;;;;-0.10;100.00;96118.09;5037100;28;20893;-70
2020/12/12 05:29:48;;;;;;;25.07;19.57;;;;;;;-0.27;100.00;96121.44;5032964;28;20437;-70
2020/12/12 05:32:17;;;;;;;20.87;17.47;;;;;;;-0.20;100.00;96120.72;5040507;28;20448;-70
2020/12/12 05:34:44;;;;;;;23.53;19.33;;;;;;;-0.18;100.00;96116.19;4997009;28;20720;-67
2020/12/12 05:37:12;;;;;;;21.67;18.20;;;;;;;-0.10;100.00;96117.25;5026283;28;20450;-70
2020/12/12 05:39:39;;;;;;;27.57;20.40;;;;;;;-0.17;100.00;96120.44;5013912;28;20949;-70
2020/12/12 05:42:06;;;;;;;23.13;18.87;;;;;;;-0.08;100.00;96110.97;5017659;28;20765;-68
2020/12/12 05:44:34;;;;;;;25.93;19.53;;;;;;;-0.11;100.00;96108.66;5028595;28;20445;-67
2020/12/12 05:47:02;;;;;;;21.93;17.73;;;;;;;-0.05;100.00;96113.28;5008465;28;20242;-68
2020/12/12 05:49:33;;;;;;;23.63;18.30;;;;;;;-0.07;100.00;96109.16;5016409;28;20207;-64
2020/12/12 05:52:00;;;;;;;25.30;19.07;;;;;;;-0.09;100.00;96124.09;4999279;28;20482;-68
2020/12/12 05:54:29;;;;;;;23.90;18.53;;;;;;;-0.21;100.00;96120.84;5013543;28;20641;-67
2020/12/12 05:56:58;;;;;;;25.23;19.63;;;;;;;-0.06;100.00;96111.63;5013882;28;20916;-64
2020/12/12 05:59:25;;;;;;;27.10;19.53;;;;;;;-0.17;100.00;96115.22;5042558;28;20467;-69
2020/12/12 06:01:54;;;;;;;25.10;19.53;;;;;;;-0.16;100.00;96119.47;5043734;28;20447;-66
2020/12/12 06:04:25;;;;;;;24.17;19.20;;;;;;;-0.05;100.00;96118.47;5040305;28;20474;-69
2020/12/12 06:06:57;;;;;;;23.50;19.53;;;;;;;0.03;100.00;96119.53;5004021;28;20235;-65
2020/12/12 06:09:35;;;;;;;22.77;19.77;;;;;;;0.00;100.00;96125.88;5039415;28;20472;-67
2020/12/12 06:12:03;;;;;;;23.53;19.10;;;;;;;0.04;100.00;96123.78;4994137;28;20988;-64
2020/12/12 06:14:36;;;;;;;24.33;19.23;;;;;;;0.07;100.00;96126.09;5030680;28;20458;-67
2020/12/12 06:17:07;;;;;;;25.93;20.17;;;;;;;-0.05;100.00;96117.66;5037475;28;20567;-68
2020/12/12 06:19:37;;;;;;;21.50;18.77;;;;;;;-0.03;100.00;96116.56;5042995;28;20270;-67
2020/12/12 06:22:05;;;;;;;25.73;19.90;;;;;;;0.03;100.00;96120.38;4996737;28;20588;-68
2020/12/12 06:24:34;;;;;;;25.13;19.13;;;;;;;-0.04;100.00;96114.91;5020726;28;20220;-68
2020/12/12 06:27:03;;;;;;;24.20;20.30;;;;;;;-0.04;100.00;96125.34;5013009;28;20686;-68
2020/12/12 06:29:32;;;;;;;23.60;19.47;;;;;;;-0.10;100.00;96119.88;5020581;28;20722;-68
2020/12/12 06:31:59;;;;;;;24.67;19.20;;;;;;;-0.04;100.00;96125.34;5038921;28;20454;-68
2020/12/12 06:34:43;;;;;;;25.60;19.93;;;;;;;0.01;100.00;96135.31;5037377;28;20851;-67
2020/12/12 06:37:32;;;;;;;22.80;19.17;;;;;;;0.00;100.00;96131.09;5013758;28;20483;-66
2020/12/12 06:40:00;;;;;;;25.03;19.67;;;;;;;0.12;100.00;96134.28;5043886;28;20458;-68
2020/12/12 06:42:30;;;;;;;27.70;19.37;;;;;;;0.05;100.00;96138.44;5004137;28;20204;-68
2020/12/12 06:44:57;;;;;;;23.33;19.07;;;;;;;-0.03;100.00;96139.16;5018346;28;20658;-67
2020/12/12 06:47:37;;;;;;;24.97;19.80;;;;;;;-0.03;100.00;96142.59;5022505;28;21112;-66
2020/12/12 06:50:06;;;;;;;24.07;19.30;;;;;;;-0.11;100.00;96146.88;5047908;28;20801;-67
2020/12/12 06:52:34;;;;;;;25.53;20.00;;;;;;;-0.05;100.00;96138.47;5012104;28;20236;-69
2020/12/12 06:55:03;;;;;;;25.83;18.73;;;;;;;-0.09;100.00;96144.94;5041361;28;20480;-69
2020/12/12 06:57:33;;;;;;;25.83;20.87;;;;;;;-0.14;100.00;96150.59;5016081;28;22517;-68
2020/12/12 07:00:00;;;;;;;23.47;19.70;;;;;;;-0.15;100.00;96151.56;5025523;28;20834;-69
2020/12/12 07:02:27;;;;;;;22.50;19.83;;;;;;;-0.05;100.00;96157.53;5042951;28;20464;-68
2020/12/12 07:04:54;;;;;;;24.90;19.63;;;;;;;-0.06;100.00;96158.50;5039157;28;20208;-67
2020/12/12 07:07:21;;;;;;;25.43;19.83;;;;;;;0.10;100.00;96162.28;5003570;28;20486;-67
2020/12/12 07:09:49;;;;;;;23.97;20.13;;;;;;;0.11;100.00;96161.31;5039199;28;20452;-66
2020/12/12 07:12:16;;;;;;;31.00;19.73;;;;;;;-0.09;100.00;96165.78;5036311;28;20457;-68
2020/12/12 07:14:43;;;;;;;24.43;20.43;;;;;;;-0.09;100.00;96160.56;5004267;28;20481;-68
2020/12/12 07:17:10;;;;;;;25.13;19.10;;;;;;;-0.24;100.00;96174.06;5040392;28;20309;-66
2020/12/12 07:19:38;;;;;;;23.13;19.30;;;;;;;-0.21;100.00;96176.38;5024136;28;21202;-68
2020/12/12 07:22:14;;;;;;;22.43;19.67;;;;;;;-0.19;100.00;96179.66;5039275;28;20448;-66
2020/12/12 07:24:43;;;;;;;25.20;20.50;;;;;;;-0.06;100.00;96189.75;5032624;28;20460;-68
2020/12/12 07:27:11;;;;;;;24.47;18.73;;;;;;;-0.09;100.00;96187.44;5044649;28;20302;-66
2020/12/12 07:29:38;;;;;;;26.13;20.90;;;;;;;-0.02;100.00;96190.28;5013175;28;20443;-67
2020/12/12 07:32:06;;;;;;;25.27;20.20;;;;;;;0.04;100.00;96192.34;5028111;28;20445;-67
2020/12/12 07:34:33;;;;;;;25.17;19.57;;;;;;;0.15;100.00;96188.72;5042453;28;20526;-71
2020/12/12 07:37:02;;;;;;;24.20;18.20;;;;;;;0.17;100.00;96192.00;5035536;28;20223;-68
2020/12/12 07:39:30;;;;;;;22.87;18.57;;;;;;;0.17;100.00;96202.41;5005306;28;20719;-69
2020/12/12 07:41:58;;;;;;;25.47;19.03;;;;;;;0.10;100.00;96198.75;5045527;28;20570;-69
2020/12/12 07:44:27;;;;;;;23.27;19.03;;;;;;;0.23;100.00;96199.25;5041997;28;20687;-68
2020/12/12 07:46:58;;;;;;;24.10;19.47;;;;;;;0.40;100.00;96189.88;5008249;28;20667;-68
2020/12/12 07:49:28;;;;;;;22.00;18.17;;;;;;;0.39;100.00;96192.59;5037763;28;20496;-69
2020/12/12 07:52:02;;;;;;;24.17;18.03;;;;;;;0.52;100.00;96200.91;5044763;28;20446;-69
2020/12/12 07:54:39;;;;;;;25.03;19.63;;;;;;;0.49;100.00;96208.19;5003517;28;20508;-69
2020/12/12 07:57:07;;;;;;;23.43;19.53;;;;;;;0.40;100.00;96205.50;5037620;28;20440;-67
2020/12/12 07:59:35;;;;;;;24.13;19.20;;;;;;;0.37;100.00;96205.75;5037196;28;20843;-68
2020/12/12 08:02:04;;;;;;;21.50;17.90;;;;;;;0.53;100.00;96212.16;5006227;28;20215;-68
2020/12/12 08:04:31;;;;;;;23.87;18.50;;;;;;;0.49;100.00;96209.00;5041567;28;20607;-69
2020/12/12 08:07:02;;;;;;;25.57;20.00;;;;;;;0.42;100.00;96213.16;5042842;28;20239;-69
2020/12/12 08:09:29;;;;;;;22.87;17.87;;;;;;;0.51;100.00;96207.06;5032275;28;20593;-68
2020/12/12 08:11:57;;;;;;;21.83;18.93;;;;;;;0.55;100.00;96210.22;5011447;28;20584;-68
2020/12/12 08:14:25;;;;;;;23.03;19.27;;;;;;;0.59;100.00;96218.59;5028724;28;20707;-70
2020/12/12 08:16:59;;;;;;;24.53;20.10;;;;;;;0.56;100.00;96215.28;5005068;28;20234;-69
2020/12/12 08:19:28;;;;;;;24.50;17.47;;;;;;;0.53;100.00;96214.75;5042095;28;20768;-69
2020/12/12 08:22:19;;;;;;;21.73;18.37;;;;;;;0.57;100.00;96219.56;5039163;28;20208;-69
2020/12/12 08:24:47;;;;;;;23.97;18.20;;;;;;;0.58;100.00;96225.56;5035879;28;20451;-69
2020/12/12 08:27:16;;;;;;;22.43;18.67;;;;;;;0.59;100.00;96235.03;5002847;28;20223;-66
2020/12/12 08:29:44;;;;;;;22.93;17.80;;;;;;;0.62;100.00;96231.31;5043492;28;20992;-68
2020/12/12 08:32:32;;;;;;;20.70;16.73;;;;;;;0.59;100.00;96229.00;5013238;28;20461;-66
2020/12/12 08:35:14;;;;;;;22.67;17.57;;;;;;;0.52;100.00;96234.78;5036545;28;20462;-68
2020/12/12 08:37:51;;;;;;;25.47;19.40;;;;;;;0.50;100.00;96244.53;5035942;28;20462;-67
2020/12/12 08:40:23;;;;;;;23.57;18.77;;;;;;;0.52;100.00;96247.00;5034564;28;20235;-66
2020/12/12 08:43:05;;;;;;;23.37;18.23;;;;;;;0.75;100.00;96249.22;5011148;28;20215;-67
2020/12/12 08:45:33;;;;;;;25.83;18.57;;;;;;;0.68;100.00;96243.78;5036542;28;20231;-69
2020/12/12 08:48:11;;;;;;;25.83;19.10;;;;;;;0.92;100.00;96242.41;5005949;28;20232;-68
2020/12/12 08:50:47;;;;;;;22.47;19.40;;;;;;;1.08;100.00;96245.19;5029916;28;20645;-67
2020/12/12 08:53:28;;;;;;;22.90;18.33;;;;;;;1.10;100.00;96255.47;5030724;28;20215;-66
2020/12/12 08:55:59;;;;;;;22.60;17.87;;;;;;;1.18;100.00;96254.75;5042624;28;20226;-69
2020/12/12 08:58:33;;;;;;;22.40;18.90;;;;;;;1.08;100.00;96258.25;5008478;28;20206;-67
2020/12/12 09:01:13;;;;;;;23.20;17.93;;;;;;;1.21;100.00;96255.28;5042095;28;20204;-66
2020/12/12 09:03:52;;;;;;;23.93;18.83;;;;;;;1.34;100.00;96254.06;5015836;28;23205;-67
2020/12/12 09:06:19;;;;;;;23.20;18.20;;;;;;;1.19;100.00;96262.44;5032548;28;20258;-66
2020/12/12 09:08:46;;;;;;;28.27;20.53;;;;;;;1.45;100.00;96266.91;5024082;28;20220;-68
2020/12/12 09:11:13;;;;;;;21.80;18.37;;;;;;;1.26;100.00;96267.88;5026685;28;20238;-65
2020/12/12 09:13:41;;;;;;;24.57;18.30;;;;;;;1.53;100.00;96274.00;4982575;28;20500;-67
2020/12/12 09:16:08;;;;;;;23.73;19.33;;;;;;;1.62;100.00;96275.69;5037852;28;20712;-66
2020/12/12 09:18:43;;;;;;;22.10;18.27;;;;;;;1.79;100.00;96265.41;4997430;28;20655;-68
2020/12/12 09:21:12;;;;;;;23.53;19.43;;;;;;;1.76;100.00;96276.16;5027234;28;20227;-65
2020/12/12 09:23:39;;;;;;;21.90;18.33;;;;;;;1.80;98.84;96280.91;5031100;28;20210;-66
2020/12/12 09:26:07;;;;;;;22.47;18.40;;;;;;;1.78;98.90;96285.47;5032968;28;20323;-65
2020/12/12 09:28:34;;;;;;;23.30;17.80;;;;;;;1.86;99.75;96282.09;4997610;28;20387;-68
2020/12/12 09:31:02;;;;;;;20.83;17.60;;;;;;;1.93;98.10;96280.53;5043676;28;20204;-68
2020/12/12 09:33:29;;;;;;;19.03;16.87;;;;;;;1.93;99.56;96284.94;5015790;28;20412;-69
2020/12/12 09:35:56;;;;;;;19.63;16.57;;;;;;;1.96;99.35;96293.28;5025107;28;20231;-69
2020/12/12 09:38:27;;;;;;;23.37;17.77;;;;;;;1.88;98.06;96288.81;5039885;28;20547;-66
2020/12/12 09:40:54;;;;;;;20.90;15.83;;;;;;;1.94;98.38;96297.84;5041098;28;20235;-67
2020/12/12 09:43:35;;;;;;;19.63;16.07;;;;;;;1.92;98.62;96294.56;4998468;28;20423;-68
2020/12/12 09:46:02;;;;;;;23.37;18.27;;;;;;;1.73;99.11;96296.38;5037582;28;20227;-69
2020/12/12 09:48:29;;;;;;;22.30;18.77;;;;;;;1.77;99.86;96301.31;5038232;28;20574;-69
2020/12/12 09:50:56;;;;;;;20.37;16.53;;;;;;;2.02;99.90;96300.50;5006464;28;20274;-69
2020/12/12 09:53:23;;;;;;;19.60;16.60;;;;;;;1.96;98.86;96303.72;5039801;28;20200;-66
2020/12/12 09:55:53;;;;;;;21.70;17.97;;;;;;;2.33;99.73;96308.88;5039087;28;20231;-68
2020/12/12 09:58:20;;;;;;;23.90;18.90;;;;;;;2.37;97.62;96299.75;5013319;28;20482;-66
2020/12/12 10:00:47;;;;;;;22.13;18.70;;;;;;;2.21;97.76;96306.53;5023768;28;20683;-69
2020/12/12 10:03:14;;;;;;;21.43;17.47;;;;;;;2.24;94.91;96308.84;5031143;28;20687;-68
2020/12/12 10:05:41;;;;;;;20.50;17.40;;;;;;;2.30;96.89;96303.00;5015442;28;20351;-70
2020/12/12 10:08:08;;;;;;;21.07;17.60;;;;;;;2.26;98.14;96306.06;5025151;28;20414;-68
2020/12/12 10:10:35;;;;;;;29.47;23.50;;;;;;;2.57;96.57;96295.13;5033148;28;20238;-70
2020/12/12 10:13:03;;;;;;;22.50;18.90;;;;;;;2.80;95.07;96303.25;5039803;28;20203;-68
2020/12/12 10:15:30;;;;;;;23.00;20.17;;;;;;;2.60;93.38;96302.66;5015489;28;20227;-69
2020/12/12 10:17:57;;;;;;;22.13;18.70;;;;;;;2.66;95.81;96309.91;5038096;28;20493;-68
2020/12/12 10:20:24;;;;;;;21.27;18.70;;;;;;;2.67;96.37;96308.94;5013811;28;20503;-67
2020/12/12 10:22:51;;;;;;;21.87;17.90;;;;;;;2.94;93.31;96309.69;4998459;28;20216;-70
2020/12/12 10:25:19;;;;;;;22.43;17.93;;;;;;;2.96;92.88;96314.78;5020465;28;20223;-70
2020/12/12 10:27:46;;;;;;;23.93;19.30;;;;;;;2.97;94.95;96316.44;5046962;28;20582;-71
2020/12/12 10:30:15;;;;;;;25.00;18.60;;;;;;;2.85;92.80;96308.88;5001417;28;20204;-68
2020/12/12 10:32:42;;;;;;;25.13;21.27;;;;;;;2.76;93.81;96312.41;5034384;28;20199;-69
2020/12/12 10:35:11;;;;;;;22.57;20.00;;;;;;;2.81;92.86;96314.56;5026643;28;20624;-69
2020/12/12 10:37:38;;;;;;;25.30;19.87;;;;;;;2.67;93.82;96314.19;4982967;28;20219;-66
2020/12/12 10:40:12;;;;;;;23.03;19.43;;;;;;;2.77;94.56;96324.50;4998465;28;20250;-68
2020/12/12 10:42:41;;;;;;;23.23;19.20;;;;;;;2.78;94.92;96328.75;5026550;28;20207;-68
2020/12/12 10:45:09;;;;;;;23.90;19.37;;;;;;;2.65;95.75;96329.19;4989091;28;20623;-68
2020/12/12 10:47:37;;;;;;;21.80;19.43;;;;;;;2.62;96.73;96332.09;5012712;28;20214;-67
2020/12/12 10:50:05;;;;;;;23.03;17.87;;;;;;;2.73;96.17;96338.88;5013451;28;20227;-70
2020/12/12 10:52:36;;;;;;;24.53;20.13;;;;;;;2.76;95.10;96341.19;5008953;28;20537;-70
2020/12/12 10:55:04;;;;;;;24.20;19.00;;;;;;;2.79;95.20;96340.06;5004741;28;20227;-67
2020/12/12 10:57:31;;;;;;;24.23;19.37;;;;;;;2.79;96.29;96335.63;5029153;28;20439;-71
2020/12/12 10:59:59;;;;;;;23.73;20.07;;;;;;;2.69;95.17;96341.00;5015415;28;20403;-66
2020/12/12 11:02:29;;;;;;;20.20;17.50;;;;;;;2.83;93.70;96334.34;5009070;28;21018;-70
2020/12/12 11:04:57;;;;;;;22.43;18.50;;;;;;;2.79;94.78;96338.25;5020856;28;20780;-68
2020/12/12 11:07:24;;;;;;;20.87;17.17;;;;;;;2.82;94.52;96337.13;5031395;28;20739;-69
2020/12/12 11:09:51;;;;;;;20.67;17.27;;;;;;;2.69;95.85;96340.16;4984938;28;20239;-69
2020/12/12 11:12:18;;;;;;;27.90;23.50;;;;;;;2.80;95.25;96339.88;4971980;28;20510;-69
2020/12/12 11:14:47;;;;;;;20.20;18.00;;;;;;;2.66;96.35;96343.94;5017611;28;20208;-68
2020/12/12 11:17:14;;;;;;;26.87;20.67;;;;;;;2.79;94.92;96340.84;4984633;28;20750;-69
2020/12/12 11:19:42;;;;;;;21.53;18.00;;;;;;;2.78;95.47;96334.00;5025941;28;20218;-69
2020/12/12 11:22:10;;;;;;;23.57;18.97;;;;;;;2.85;95.51;96332.41;5010334;28;20208;-67